Time;durP1;ratioP1;P1;durP2;ratioP2;P2;SDS_P1;SDS_P2;PMS_P1;PMS_P2;Temp;Humidity;BMP_temperature;BMP_pressure;BME280_temperature;BME280_humidity;BME280_pressure;Samples;Min_cycle;Max_cycle;Signal;HPM_P1;HPM_P2
2021/08/01 00:00:56;;;;;;;3.45;1.40;;;;;;;;;;5033610;28;20061;-79
2021/08/01 00:03:22;;;;;;;4.95;1.35;;;;;;;;;;5021690;28;20054;-79
2021/08/01 00:05:49;;;;;;;3.33;1.45;;;;;;;;;;5017994;28;20049;-79
2021/08/01 00:08:15;;;;;;;2.90;1.40;;;;;;;;;;5026646;28;20057;-79
2021/08/01 00:10:42;;;;;;;3.35;1.40;;;;;;;;;;5027751;28;20107;-78
2021/08/01 00:13:08;;;;;;;4.25;1.67;;;;;;;;;;5024846;28;20138;-79
2021/08/01 00:15:35;;;;;;;2.95;1.58;;;;;;;;;;5023124;28;20069;-79
2021/08/01 00:18:02;;;;;;;2.58;1.30;;;;;;;;;;5025468;28;20072;-79
2021/08/01 00:20:29;;;;;;;2.35;1.00;;;;;;;;;;5027517;28;20162;-79
2021/08/01 00:22:55;;;;;;;2.17;1.13;;;;;;;;;;5020493;28;20069;-78
2021/08/01 00:25:22;;;;;;;2.40;1.30;;;;;;;;;;5023093;28;20049;-79
2021/08/01 00:27:49;;;;;;;2.33;1.10;;;;;;;;;;5024930;28;20061;-79
2021/08/01 00:30:15;;;;;;;41.72;4.35;;;;;;;;;;5017592;28;20057;-79
2021/08/01 00:32:43;;;;;;;2.58;1.23;;;;;;;;;;5025361;28;20042;-79
2021/08/01 00:35:10;;;;;;;4.68;1.30;;;;;;;;;;5024014;28;20065;-78
2021/08/01 00:37:36;;;;;;;3.17;1.50;;;;;;;;;;5022037;28;20111;-79
2021/08/01 00:40:03;;;;;;;3.25;1.35;;;;;;;;;;5025796;28;20076;-79
2021/08/01 00:42:29;;;;;;;4.05;1.42;;;;;;;;;;5023395;28;20779;-79
2021/08/01 00:44:56;;;;;;;3.50;1.35;;;;;;;;;;5026026;28;20057;-78
2021/08/01 00:47:22;;;;;;;2.70;1.40;;;;;;;;;;5017622;28;20049;-79
2021/08/01 00:49:49;;;;;;;1.90;1.10;;;;;;;;;;5052126;28;20061;-79
2021/08/01 00:52:15;;;;;;;4.10;1.50;;;;;;;;;;5023693;28;20049;-81
2021/08/01 00:54:50;;;;;;;2.63;1.10;;;;;;;;;;5024514;28;20552;-79
2021/08/01 00:57:17;;;;;;;2.40;1.23;;;;;;;;;;5022421;28;20115;-82
2021/08/01 00:59:43;;;;;;;3.42;1.23;;;;;;;;;;5024918;28;20123;-82
2021/08/01 01:02:20;;;;;;;4.57;1.30;;;;;;;;;;5057812;28;20038;-81
2021/08/01 01:05:05;;;;;;;2.08;1.17;;;;;;;;;;5026856;28;20061;-80
2021/08/01 01:07:48;;;;;;;2.55;1.10;;;;;;;;;;5024695;28;21217;-80
2021/08/01 01:10:36;;;;;;;2.92;1.23;;;;;;;;;;5022313;28;20791;-81
2021/08/01 01:13:14;;;;;;;3.17;1.15;;;;;;;;;;5023250;28;20065;-80
2021/08/01 01:15:46;;;;;;;2.42;1.05;;;;;;;;;;5023491;28;20057;-80
2021/08/01 01:18:17;;;;;;;3.05;1.33;;;;;;;;;;5020225;28;20053;-79
2021/08/01 01:20:49;;;;;;;2.78;1.20;;;;;;;;;;5024000;28;20056;-80
2021/08/01 01:23:25;;;;;;;1.92;1.10;;;;;;;;;;5023139;28;20162;-80
2021/08/01 01:25:59;;;;;;;2.75;1.45;;;;;;;;;;5017441;28;20065;-80
2021/08/01 01:28:45;;;;;;;2.47;1.30;;;;;;;;;;5024028;28;20466;-78
2021/08/01 01:31:21;;;;;;;2.03;1.13;;;;;;;;;;5023552;28;20131;-80
2021/08/01 01:34:14;;;;;;;2.08;1.10;;;;;;;;;;5024700;28;20069;-79
2021/08/01 01:36:42;;;;;;;2.17;1.20;;;;;;;;;;5021344;28;20057;-80
2021/08/01 01:39:09;;;;;;;3.10;1.25;;;;;;;;;;5024138;28;20130;-80
2021/08/01 01:41:36;;;;;;;1.80;1.10;;;;;;;;;;5024660;28;20635;-80
2021/08/01 01:44:05;;;;;;;1.63;0.95;;;;;;;;;;5023315;28;20119;-80
2021/08/01 01:46:31;;;;;;;3.47;1.48;;;;;;;;;;5019100;28;20061;-80
2021/08/01 01:48:58;;;;;;;2.67;1.30;;;;;;;;;;5021156;28;20068;-81
2021/08/01 01:51:25;;;;;;;3.08;1.38;;;;;;;;;;5024942;28;20061;-80
2021/08/01 01:53:52;;;;;;;1.85;1.00;;;;;;;;;;5016751;28;20117;-80
2021/08/01 01:56:20;;;;;;;2.45;1.15;;;;;;;;;;5023124;28;20057;-80
2021/08/01 01:58:46;;;;;;;1.50;1.10;;;;;;;;;;5017163;28;20449;-80
2021/08/01 02:01:13;;;;;;;1.90;1.20;;;;;;;;;;5024841;28;20065;-80
2021/08/01 02:03:39;;;;;;;1.80;1.08;;;;;;;;;;5023193;28;20146;-80
2021/08/01 02:06:06;;;;;;;2.38;1.00;;;;;;;;;;5023773;28;20126;-80
2021/08/01 02:08:43;;;;;;;2.83;1.30;;;;;;;;;;5023705;28;20044;-81
2021/08/01 02:11:10;;;;;;;2.58;1.00;;;;;;;;;;5017603;28;20057;-81
2021/08/01 02:13:40;;;;;;;1.70;1.10;;;;;;;;;;5019266;28;20130;-80
2021/08/01 02:16:06;;;;;;;2.28;1.10;;;;;;;;;;5022578;28;20061;-80
2021/08/01 02:18:46;;;;;;;2.50;1.35;;;;;;;;;;5022285;28;20099;-82
2021/08/01 02:21:13;;;;;;;2.92;1.30;;;;;;;;;;5017230;28;20141;-81
2021/08/01 02:23:42;;;;;;;2.13;1.00;;;;;;;;;;5015892;28;20050;-80
2021/08/01 02:26:10;;;;;;;2.72;1.20;;;;;;;;;;5019864;28;20075;-81
2021/08/01 02:28:38;;;;;;;1.95;1.10;;;;;;;;;;5023343;28;20073;-81
2021/08/01 02:31:05;;;;;;;3.88;1.25;;;;;;;;;;5023794;28;20080;-80
2021/08/01 02:33:32;;;;;;;1.67;1.00;;;;;;;;;;5055370;28;20118;-80
2021/08/01 02:36:00;;;;;;;2.72;1.00;;;;;;;;;;5023030;28;20080;-80
2021/08/01 02:38:26;;;;;;;2.33;0.90;;;;;;;;;;5022561;28;20118;-80
2021/08/01 02:40:54;;;;;;;2.33;1.23;;;;;;;;;;5013116;28;20053;-82
2021/08/01 02:43:22;;;;;;;3.03;1.20;;;;;;;;;;5032819;28;22293;-81
2021/08/01 02:45:49;;;;;;;2.33;0.95;;;;;;;;;;5031928;28;20064;-81
2021/08/01 02:48:16;;;;;;;2.53;0.80;;;;;;;;;;5020779;28;20441;-81
2021/08/01 02:50:46;;;;;;;1.65;0.95;;;;;;;;;;5012182;28;20501;-81
2021/08/01 02:53:13;;;;;;;2.22;1.10;;;;;;;;;;5021675;28;20433;-81
2021/08/01 02:55:43;;;;;;;2.45;1.00;;;;;;;;;;5025214;28;20052;-79
2021/08/01 02:58:09;;;;;;;3.35;0.90;;;;;;;;;;5022459;28;20139;-79
2021/08/01 03:00:36;;;;;;;2.08;1.27;;;;;;;;;;5023748;28;20061;-79
2021/08/01 03:03:05;;;;;;;1.88;1.05;;;;;;;;;;5021904;28;20073;-80
2021/08/01 03:05:31;;;;;;;3.17;1.15;;;;;;;;;;5012440;28;20053;-81
2021/08/01 03:07:58;;;;;;;3.00;1.40;;;;;;;;;;5021472;28;20685;-80
2021/08/01 03:10:25;;;;;;;2.85;1.10;;;;;;;;;;5021680;28;20057;-81
2021/08/01 03:12:51;;;;;;;3.83;1.40;;;;;;;;;;5018325;28;20473;-81
2021/08/01 03:15:18;;;;;;;1.63;0.90;;;;;;;;;;5021263;28;20076;-80
2021/08/01 03:17:45;;;;;;;3.33;1.08;;;;;;;;;;5023395;28;20065;-81
2021/08/01 03:20:12;;;;;;;1.90;1.10;;;;;;;;;;5008866;28;20077;-81
2021/08/01 03:22:38;;;;;;;3.50;1.10;;;;;;;;;;5021646;28;20068;-82
2021/08/01 03:25:05;;;;;;;3.55;1.33;;;;;;;;;;5016481;28;20075;-81
2021/08/01 03:27:31;;;;;;;3.03;1.10;;;;;;;;;;5021688;28;20096;-82
2021/08/01 03:29:58;;;;;;;2.67;1.10;;;;;;;;;;5023264;28;20064;-80
2021/08/01 03:32:24;;;;;;;2.33;1.00;;;;;;;;;;5015775;28;20640;-80
2021/08/01 03:34:50;;;;;;;3.55;1.33;;;;;;;;;;5052241;28;20076;-83
2021/08/01 03:37:17;;;;;;;2.03;1.10;;;;;;;;;;5023570;28;20060;-81
2021/08/01 03:39:44;;;;;;;4.38;1.10;;;;;;;;;;5023689;28;20134;-82
2021/08/01 03:42:10;;;;;;;2.05;1.25;;;;;;;;;;5019584;28;20058;-81
2021/08/01 03:44:37;;;;;;;2.60;0.98;;;;;;;;;;5027703;28;20124;-81
2021/08/01 03:47:03;;;;;;;2.60;1.05;;;;;;;;;;5024399;28;20045;-83
2021/08/01 03:49:30;;;;;;;1.73;0.90;;;;;;;;;;5056594;28;20127;-82
2021/08/01 03:51:56;;;;;;;2.25;1.35;;;;;;;;;;5026777;28;20064;-82
2021/08/01 03:54:22;;;;;;;2.10;1.00;;;;;;;;;;5027143;28;20049;-82
2021/08/01 03:56:49;;;;;;;2.85;1.25;;;;;;;;;;5028307;28;20493;-82
2021/08/01 03:59:15;;;;;;;3.03;1.10;;;;;;;;;;5024644;28;20074;-82
2021/08/01 04:01:42;;;;;;;1.92;1.00;;;;;;;;;;5028061;28;20053;-82
2021/08/01 04:04:08;;;;;;;1.83;1.02;;;;;;;;;;5035748;28;20091;-82
2021/08/01 04:06:35;;;;;;;2.35;0.90;;;;;;;;;;5028030;28;20077;-82
2021/08/01 04:09:04;;;;;;;2.47;1.08;;;;;;;;;;5026312;28;20064;-82
2021/08/01 04:11:32;;;;;;;2.97;1.23;;;;;;;;;;5027194;28;20489;-81
2021/08/01 04:13:58;;;;;;;2.00;1.13;;;;;;;;;;5026022;28;20146;-81
2021/08/01 04:16:27;;;;;;;1.77;0.85;;;;;;;;;;5027608;28;20121;-81
2021/08/01 04:18:57;;;;;;;3.08;1.45;;;;;;;;;;5026604;28;20042;-80
2021/08/01 04:21:25;;;;;;;2.35;1.10;;;;;;;;;;5026039;28;20034;-80
2021/08/01 04:23:51;;;;;;;3.03;1.25;;;;;;;;;;5026616;28;20764;-79
2021/08/01 04:26:18;;;;;;;2.03;1.10;;;;;;;;;;5026552;28;20065;-79
2021/08/01 04:28:44;;;;;;;1.70;1.10;;;;;;;;;;5019655;28;20454;-79
2021/08/01 04:31:11;;;;;;;3.05;1.20;;;;;;;;;;5025375;28;20071;-79
2021/08/01 04:33:37;;;;;;;1.98;1.10;;;;;;;;;;5025114;28;20057;-80
2021/08/01 04:36:03;;;;;;;2.72;1.10;;;;;;;;;;5024786;28;20509;-78
2021/08/01 04:38:30;;;;;;;2.20;1.20;;;;;;;;;;5025935;28;20069;-76
2021/08/01 04:40:56;;;;;;;2.92;1.20;;;;;;;;;;5025427;28;20054;-76
2021/08/01 04:43:23;;;;;;;3.58;1.30;;;;;;;;;;5023882;28;20114;-76
2021/08/01 04:45:49;;;;;;;1.67;1.10;;;;;;;;;;5054930;28;20567;-76
2021/08/01 04:48:15;;;;;;;1.83;1.20;;;;;;;;;;5025077;28;20147;-75
2021/08/01 04:50:42;;;;;;;5.20;1.40;;;;;;;;;;5024823;28;20049;-76
2021/08/01 04:53:09;;;;;;;2.00;1.10;;;;;;;;;;5024474;28;20174;-78
2021/08/01 04:55:35;;;;;;;3.75;1.30;;;;;;;;;;5021842;28;20068;-77
2021/08/01 04:58:02;;;;;;;2.85;1.50;;;;;;;;;;5021387;28;20539;-78
2021/08/01 05:00:29;;;;;;;2.55;1.30;;;;;;;;;;5034889;28;20069;-78
2021/08/01 05:02:58;;;;;;;2.38;1.23;;;;;;;;;;5053854;28;20060;-77
2021/08/01 05:05:25;;;;;;;2.58;1.27;;;;;;;;;;5024547;28;20053;-78
2021/08/01 05:07:51;;;;;;;2.72;1.20;;;;;;;;;;5026830;28;20034;-78
2021/08/01 05:10:17;;;;;;;2.75;1.33;;;;;;;;;;5055681;28;20107;-78
2021/08/01 05:12:44;;;;;;;3.25;1.40;;;;;;;;;;5025309;28;20500;-78
2021/08/01 05:15:10;;;;;;;3.03;1.20;;;;;;;;;;5025750;28;20091;-78
2021/08/01 05:17:37;;;;;;;3.50;1.23;;;;;;;;;;5025112;28;20135;-77
2021/08/01 05:20:04;;;;;;;2.70;1.52;;;;;;;;;;5025095;28;20073;-78
2021/08/01 05:22:30;;;;;;;1.95;1.30;;;;;;;;;;5057622;28;20116;-77
2021/08/01 05:24:56;;;;;;;2.40;1.33;;;;;;;;;;5024759;28;20061;-77
2021/08/01 05:27:23;;;;;;;2.30;1.30;;;;;;;;;;5023611;28;20705;-77
2021/08/01 05:29:50;;;;;;;2.40;1.30;;;;;;;;;;5025416;28;20065;-77
2021/08/01 05:32:16;;;;;;;2.75;1.38;;;;;;;;;;5024609;28;20064;-77
2021/08/01 05:34:42;;;;;;;3.22;1.30;;;;;;;;;;5025316;28;20060;-77
2021/08/01 05:37:09;;;;;;;3.72;1.65;;;;;;;;;;5019078;28;20087;-77
2021/08/01 05:39:35;;;;;;;2.78;1.20;;;;;;;;;;5025253;28;20069;-77
2021/08/01 05:42:02;;;;;;;5.38;1.60;;;;;;;;;;5021541;28;20195;-77
2021/08/01 05:44:29;;;;;;;3.25;1.42;;;;;;;;;;5024374;28;20061;-77
2021/08/01 05:46:55;;;;;;;4.22;1.20;;;;;;;;;;5024058;28;20049;-77
2021/08/01 05:49:22;;;;;;;4.28;1.65;;;;;;;;;;5019841;28;20331;-77
2021/08/01 05:51:48;;;;;;;3.22;1.20;;;;;;;;;;5019646;28;20068;-76
2021/08/01 05:54:14;;;;;;;2.47;1.27;;;;;;;;;;5022500;28;20130;-76
2021/08/01 05:56:41;;;;;;;4.13;1.52;;;;;;;;;;5022162;28;20064;-77
2021/08/01 05:59:07;;;;;;;4.85;1.35;;;;;;;;;;5021888;28;20072;-77
2021/08/01 06:01:34;;;;;;;4.18;1.60;;;;;;;;;;5024821;28;20065;-77
2021/08/01 06:04:00;;;;;;;4.60;1.42;;;;;;;;;;5023051;28;20127;-77
2021/08/01 06:06:27;;;;;;;4.93;1.55;;;;;;;;;;5023038;28;20060;-78
2021/08/01 06:08:53;;;;;;;3.55;1.40;;;;;;;;;;5023106;28;20057;-78
2021/08/01 06:11:21;;;;;;;2.88;1.30;;;;;;;;;;5022517;28;20064;-77
2021/08/01 06:13:48;;;;;;;3.25;1.20;;;;;;;;;;5021638;28;20065;-77
2021/08/01 06:16:15;;;;;;;3.00;1.30;;;;;;;;;;5022728;28;20061;-78
2021/08/01 06:18:42;;;;;;;5.10;1.60;;;;;;;;;;5023405;28;20087;-77
2021/08/01 06:21:08;;;;;;;7.93;1.38;;;;;;;;;;5019546;28;20073;-77
2021/08/01 06:23:36;;;;;;;5.32;1.50;;;;;;;;;;5023767;28;20069;-77
2021/08/01 06:26:03;;;;;;;3.97;1.20;;;;;;;;;;5021134;28;20509;-73
2021/08/01 06:28:31;;;;;;;3.22;1.10;;;;;;;;;;5020013;28;20053;-75
2021/08/01 06:31:04;;;;;;;3.88;1.30;;;;;;;;;;5020817;28;20115;-75
2021/08/01 06:33:31;;;;;;;2.80;1.30;;;;;;;;;;5022320;28;20057;-76
2021/08/01 06:35:58;;;;;;;2.25;1.20;;;;;;;;;;5022323;28;20068;-75
2021/08/01 06:38:24;;;;;;;2.45;1.30;;;;;;;;;;5023389;28;20053;-77
2021/08/01 06:40:51;;;;;;;4.30;1.38;;;;;;;;;;5023326;28;20111;-75
2021/08/01 06:43:17;;;;;;;7.95;1.30;;;;;;;;;;5021935;28;20075;-75
2021/08/01 06:45:44;;;;;;;4.65;1.50;;;;;;;;;;5022693;28;20065;-76
2021/08/01 06:48:10;;;;;;;5.63;1.58;;;;;;;;;;5022850;28;20483;-75
2021/08/01 06:50:37;;;;;;;3.85;1.30;;;;;;;;;;5024078;28;20153;-75
2021/08/01 06:53:04;;;;;;;7.22;3.50;;;;;;;;;;5016439;28;20068;-75
2021/08/01 06:55:31;;;;;;;3.75;1.67;;;;;;;;;;5019435;28;20073;-75
2021/08/01 06:57:57;;;;;;;4.53;2.03;;;;;;;;;;5023224;28;20068;-74
2021/08/01 07:00:24;;;;;;;4.85;1.50;;;;;;;;;;5022718;28;20065;-75
2021/08/01 07:02:57;;;;;;;3.70;1.35;;;;;;;;;;5022866;28;20115;-75
2021/08/01 07:05:24;;;;;;;3.35;1.20;;;;;;;;;;5020560;28;20245;-75
2021/08/01 07:07:51;;;;;;;2.75;1.23;;;;;;;;;;5020533;28;20068;-75
2021/08/01 07:10:18;;;;;;;3.42;1.70;;;;;;;;;;5022170;28;20069;-75
2021/08/01 07:12:46;;;;;;;3.75;1.02;;;;;;;;;;5017733;28;20037;-75
2021/08/01 07:15:13;;;;;;;5.95;1.15;;;;;;;;;;5019343;28;20523;-74
2021/08/01 07:17:39;;;;;;;4.13;1.58;;;;;;;;;;5021269;28;20108;-75
2021/08/01 07:20:08;;;;;;;3.97;1.40;;;;;;;;;;5013295;28;20084;-76
2021/08/01 07:22:35;;;;;;;5.03;1.30;;;;;;;;;;5022226;28;20629;-74
2021/08/01 07:25:02;;;;;;;3.90;1.23;;;;;;;;;;5022466;28;20099;-74
2021/08/01 07:27:28;;;;;;;4.38;1.77;;;;;;;;;;5020510;28;20535;-75
2021/08/01 07:29:55;;;;;;;2.85;1.63;;;;;;;;;;5022589;28;20069;-74
2021/08/01 07:32:21;;;;;;;4.93;1.45;;;;;;;;;;5020885;28;20060;-75
2021/08/01 07:34:48;;;;;;;4.72;1.40;;;;;;;;;;5019353;28;20053;-74
2021/08/01 07:37:14;;;;;;;4.57;2.10;;;;;;;;;;5019442;28;20073;-74
2021/08/01 07:39:41;;;;;;;4.90;1.60;;;;;;;;;;5021534;28;20150;-75
2021/08/01 07:42:08;;;;;;;3.67;1.42;;;;;;;;;;5018888;28;20069;-75
2021/08/01 07:44:45;;;;;;;6.03;1.38;;;;;;;;;;5023290;28;20084;-75
2021/08/01 07:47:15;;;;;;;3.78;2.20;;;;;;;;;;5020310;28;20068;-75
2021/08/01 07:49:42;;;;;;;4.13;1.20;;;;;;;;;;5019010;28;20155;-76
2021/08/01 07:52:08;;;;;;;6.03;1.25;;;;;;;;;;5019985;28;20057;-75
2021/08/01 07:54:35;;;;;;;4.80;1.10;;;;;;;;;;5023068;28;20401;-75
2021/08/01 07:57:01;;;;;;;2.95;1.20;;;;;;;;;;5022147;28;20533;-75
2021/08/01 07:59:27;;;;;;;6.53;1.35;;;;;;;;;;5021977;28;20065;-76
2021/08/01 08:01:54;;;;;;;2.92;1.20;;;;;;;;;;5022953;28;20450;-76
2021/08/01 08:04:20;;;;;;;4.40;1.38;;;;;;;;;;5020955;28;20053;-74
2021/08/01 08:06:47;;;;;;;4.82;1.63;;;;;;;;;;5021969;28;20551;-77
2021/08/01 08:09:14;;;;;;;4.10;1.55;;;;;;;;;;5022782;28;20456;-75
2021/08/01 08:11:41;;;;;;;4.65;1.23;;;;;;;;;;5023949;28;20059;-74
2021/08/01 08:14:07;;;;;;;4.18;1.20;;;;;;;;;;5021951;28;20060;-75
2021/08/01 08:16:34;;;;;;;3.28;0.98;;;;;;;;;;5022890;28;20058;-76
2021/08/01 08:19:00;;;;;;;4.72;1.20;;;;;;;;;;5024626;28;20083;-75
2021/08/01 08:21:27;;;;;;;10.35;1.40;;;;;;;;;;5025417;28;20535;-75
2021/08/01 08:23:54;;;;;;;2.70;1.42;;;;;;;;;;5025227;28;20096;-76
2021/08/01 08:26:20;;;;;;;6.88;1.75;;;;;;;;;;5022448;28;20061;-80
2021/08/01 08:28:46;;;;;;;4.13;1.00;;;;;;;;;;5024581;28;20067;-76
2021/08/01 08:31:13;;;;;;;4.55;0.93;;;;;;;;;;5023106;28;20068;-78
2021/08/01 08:33:39;;;;;;;3.60;1.05;;;;;;;;;;5021163;28;20065;-78
2021/08/01 08:36:06;;;;;;;2.78;0.90;;;;;;;;;;5025839;28;20064;-76
2021/08/01 08:38:32;;;;;;;3.78;1.10;;;;;;;;;;5019684;28;20053;-78
2021/08/01 08:40:58;;;;;;;2.97;1.33;;;;;;;;;;5021853;28;20061;-76
2021/08/01 08:43:25;;;;;;;4.25;1.20;;;;;;;;;;5026235;28;20115;-77
2021/08/01 08:45:52;;;;;;;5.90;1.38;;;;;;;;;;5025215;28;20056;-77
2021/08/01 08:48:19;;;;;;;2.50;1.02;;;;;;;;;;5057034;28;20049;-73
2021/08/01 08:50:52;;;;;;;4.03;1.20;;;;;;;;;;5017349;28;20066;-77
2021/08/01 08:53:23;;;;;;;5.88;1.50;;;;;;;;;;5015611;28;20465;-76
2021/08/01 08:55:50;;;;;;;8.10;2.13;;;;;;;;;;5025149;28;20057;-76
2021/08/01 08:58:21;;;;;;;7.20;2.40;;;;;;;;;;5015000;28;21229;-77
2021/08/01 09:00:47;;;;;;;8.05;2.25;;;;;;;;;;5023940;28;20150;-76
2021/08/01 09:03:14;;;;;;;5.07;1.73;;;;;;;;;;5023031;28;20114;-76
2021/08/01 09:05:40;;;;;;;10.43;2.13;;;;;;;;;;5023082;28;20068;-76
2021/08/01 09:08:07;;;;;;;7.88;2.03;;;;;;;;;;5018274;28;20069;-77
2021/08/01 09:10:33;;;;;;;10.00;2.40;;;;;;;;;;5016934;28;20060;-77
2021/08/01 09:12:59;;;;;;;9.05;2.65;;;;;;;;;;5053233;28;20061;-75
2021/08/01 09:15:28;;;;;;;9.30;2.45;;;;;;;;;;5023951;28;20441;-76
2021/08/01 09:17:55;;;;;;;7.80;2.25;;;;;;;;;;5025491;28;20563;-76
2021/08/01 09:20:23;;;;;;;9.40;2.60;;;;;;;;;;5050217;28;20073;-77
2021/08/01 09:23:01;;;;;;;10.10;2.15;;;;;;;;;;5024982;28;20053;-76
2021/08/01 09:25:31;;;;;;;7.28;2.03;;;;;;;;;;5021212;28;20581;-78
2021/08/01 09:28:16;;;;;;;7.15;2.20;;;;;;;;;;5023777;28;20049;-76
2021/08/01 09:30:47;;;;;;;6.70;1.60;;;;;;;;;;5025057;28;20061;-77
2021/08/01 09:33:20;;;;;;;6.22;1.95;;;;;;;;;;5018876;28;20131;-77
2021/08/01 09:35:46;;;;;;;5.18;1.85;;;;;;;;;;5022099;28;20118;-76
2021/08/01 09:38:14;;;;;;;9.10;1.75;;;;;;;;;;5023663;28;20069;-76
2021/08/01 09:40:41;;;;;;;5.38;1.50;;;;;;;;;;5025451;28;20064;-76
2021/08/01 09:43:09;;;;;;;4.72;1.95;;;;;;;;;;5018396;28;20525;-76
2021/08/01 09:45:35;;;;;;;3.88;1.33;;;;;;;;;;5031118;28;20062;-76
2021/08/01 09:48:20;;;;;;;5.05;1.55;;;;;;;;;;5025042;28;20091;-76
2021/08/01 09:50:59;;;;;;;4.13;1.40;;;;;;;;;;5023794;28;20477;-76
2021/08/01 09:53:26;;;;;;;4.68;1.50;;;;;;;;;;5022056;28;21155;-75
2021/08/01 09:56:13;;;;;;;5.18;1.38;;;;;;;;;;5014317;28;20623;-76
2021/08/01 09:58:40;;;;;;;7.18;1.77;;;;;;;;;;5022819;28;21141;-77
2021/08/01 10:01:06;;;;;;;3.47;1.42;;;;;;;;;;5020155;28;20061;-76
2021/08/01 10:03:40;;;;;;;5.97;1.52;;;;;;;;;;5019076;28;20072;-77
2021/08/01 10:06:07;;;;;;;3.50;1.20;;;;;;;;;;5022498;28;20107;-76
2021/08/01 10:08:38;;;;;;;5.90;1.70;;;;;;;;;;5022286;28;20123;-76
2021/08/01 10:11:08;;;;;;;4.30;1.45;;;;;;;;;;5016352;28;20524;-77
2021/08/01 10:13:35;;;;;;;4.60;1.10;;;;;;;;;;5023707;28;20053;-76
2021/08/01 10:16:02;;;;;;;2.88;0.90;;;;;;;;;;5021201;28;20073;-76
2021/08/01 10:18:28;;;;;;;3.80;1.20;;;;;;;;;;5012140;28;20478;-76
2021/08/01 10:20:56;;;;;;;3.38;1.23;;;;;;;;;;5022738;28;20065;-77
2021/08/01 10:23:23;;;;;;;3.75;1.40;;;;;;;;;;5023396;28;20651;-75
2021/08/01 10:25:51;;;;;;;3.92;1.70;;;;;;;;;;5023834;28;20045;-77
2021/08/01 10:28:20;;;;;;;4.65;1.30;;;;;;;;;;5017613;28;20061;-76
2021/08/01 10:30:47;;;;;;;5.90;1.80;;;;;;;;;;5016943;28;20567;-76
2021/08/01 10:33:15;;;;;;;3.80;1.30;;;;;;;;;;5019438;28;20327;-75
2021/08/01 10:35:44;;;;;;;2.13;1.13;;;;;;;;;;5015657;28;20493;-76
2021/08/01 10:38:11;;;;;;;5.57;1.33;;;;;;;;;;5018162;28;20061;-75
2021/08/01 10:40:38;;;;;;;4.20;1.10;;;;;;;;;;5023384;28;20147;-77
2021/08/01 10:43:09;;;;;;;3.75;1.00;;;;;;;;;;5014070;28;20030;-76
2021/08/01 10:45:35;;;;;;;;;;;;;;;;;;5023485;28;20057;-75
2021/08/01 10:48:02;;;;;;;2.10;1.00;;;;;;;;;;5023806;28;19956;-76
2021/08/01 10:50:30;;;;;;;5.10;1.25;;;;;;;;;;5024064;28;20057;-76
2021/08/01 10:53:14;;;;;;;3.83;1.30;;;;;;;;;;5024061;28;20057;-76
2021/08/01 10:55:41;;;;;;;3.22;1.27;;;;;;;;;;5014012;28;20486;-76
2021/08/01 10:58:13;;;;;;;3.45;1.75;;;;;;;;;;5018105;28;20115;-76
2021/08/01 11:01:01;;;;;;;4.05;1.27;;;;;;;;;;5023189;28;20065;-77
2021/08/01 11:03:28;;;;;;;4.15;1.35;;;;;;;;;;5014461;28;21275;-76
2021/08/01 11:05:55;;;;;;;6.13;1.45;;;;;;;;;;5021878;28;20088;-76
2021/08/01 11:08:22;;;;;;;3.83;1.40;;;;;;;;;;5011765;28;20482;-76
2021/08/01 11:11:08;;;;;;;3.65;1.02;;;;;;;;;;5019216;28;20509;-76
2021/08/01 11:13:36;;;;;;;5.40;1.35;;;;;;;;;;5016273;28;22169;-76
2021/08/01 11:16:03;;;;;;;3.85;1.25;;;;;;;;;;5013779;28;20071;-75
2021/08/01 11:18:29;;;;;;;4.00;1.40;;;;;;;;;;5016852;28;20069;-76
2021/08/01 11:20:56;;;;;;;3.17;1.15;;;;;;;;;;5020647;28;20672;-76
2021/08/01 11:23:42;;;;;;;2.63;1.20;;;;;;;;;;5018794;28;21306;-78
2021/08/01 11:26:11;;;;;;;4.82;1.17;;;;;;;;;;5016419;28;20149;-75
2021/08/01 11:28:37;;;;;;;3.15;1.45;;;;;;;;;;5020956;28;20054;-76
2021/08/01 11:31:08;;;;;;;2.75;1.27;;;;;;;;;;5015559;28;20111;-75
2021/08/01 11:33:42;;;;;;;5.18;1.70;;;;;;;;;;5021766;28;20061;-76
2021/08/01 11:36:18;;;;;;;3.10;1.40;;;;;;;;;;5019701;28;20091;-76
2021/08/01 11:38:50;;;;;;;2.95;1.27;;;;;;;;;;5020714;28;20065;-75
2021/08/01 11:41:35;;;;;;;2.83;1.27;;;;;;;;;;5020201;28;20073;-76
2021/08/01 11:44:04;;;;;;;3.97;1.20;;;;;;;;;;5019592;28;20061;-76
2021/08/01 11:46:57;;;;;;;2.50;0.93;;;;;;;;;;5050410;28;20091;-77
2021/08/01 11:49:24;;;;;;;2.30;0.73;;;;;;;;;;5019401;28;20135;-76
2021/08/01 11:51:55;;;;;;;1.67;0.80;;;;;;;;;;5022526;28;20069;-76
2021/08/01 11:54:27;;;;;;;2.13;0.90;;;;;;;;;;5024702;28;20100;-76
2021/08/01 11:56:59;;;;;;;1.30;0.80;;;;;;;;;;5025555;28;20072;-76
2021/08/01 11:59:26;;;;;;;3.97;1.10;;;;;;;;;;5025142;28;21336;-77
2021/08/01 12:01:53;;;;;;;2.60;0.98;;;;;;;;;;5056386;28;20123;-77
2021/08/01 12:04:20;;;;;;;2.47;1.05;;;;;;;;;;5054232;28;20053;-76
2021/08/01 12:06:47;;;;;;;1.95;0.90;;;;;;;;;;5027404;28;20053;-78
2021/08/01 12:09:16;;;;;;;2.38;1.00;;;;;;;;;;5025536;28;20069;-77
2021/08/01 12:11:44;;;;;;;2.35;1.10;;;;;;;;;;5026689;28;20053;-77
2021/08/01 12:14:11;;;;;;;2.60;0.90;;;;;;;;;;5024262;28;20068;-78
2021/08/01 12:16:37;;;;;;;3.13;1.02;;;;;;;;;;5024010;28;20509;-76
2021/08/01 12:19:17;;;;;;;3.28;0.80;;;;;;;;;;5025070;28;20064;-76
2021/08/01 12:21:44;;;;;;;1.75;0.73;;;;;;;;;;5024306;28;20103;-75
2021/08/01 12:24:29;;;;;;;3.50;0.85;;;;;;;;;;5023204;28;20426;-77
2021/08/01 12:27:03;;;;;;;3.08;0.90;;;;;;;;;;5025410;28;20068;-77
2021/08/01 12:29:30;;;;;;;2.30;0.85;;;;;;;;;;5026036;28;21213;-77
2021/08/01 12:31:57;;;;;;;2.22;0.80;;;;;;;;;;5025335;28;20061;-76
2021/08/01 12:34:23;;;;;;;3.58;1.40;;;;;;;;;;5056930;28;20645;-80
2021/08/01 12:36:50;;;;;;;2.50;0.73;;;;;;;;;;5023687;28;20081;-77
2021/08/01 12:39:18;;;;;;;1.35;0.75;;;;;;;;;;5020957;28;20490;-77
2021/08/01 12:41:45;;;;;;;1.73;0.68;;;;;;;;;;5056774;28;20063;-76
2021/08/01 12:44:15;;;;;;;1.73;0.88;;;;;;;;;;5024523;28;20458;-76
2021/08/01 12:46:41;;;;;;;1.65;0.90;;;;;;;;;;5024207;28;20134;-76
2021/08/01 12:49:08;;;;;;;3.72;0.80;;;;;;;;;;5022749;28;20069;-76
2021/08/01 12:51:35;;;;;;;2.08;0.90;;;;;;;;;;5024679;28;20076;-77
2021/08/01 12:54:01;;;;;;;2.38;1.05;;;;;;;;;;5023687;28;20437;-77
2021/08/01 12:56:28;;;;;;;3.80;0.90;;;;;;;;;;5023698;28;20127;-77
2021/08/01 12:59:09;;;;;;;2.20;0.90;;;;;;;;;;5022906;28;20065;-78
2021/08/01 13:01:35;;;;;;;;;;;;;;;;;;5006389;28;21004;-77
2021/08/01 13:04:02;;;;;;;2.33;0.65;;;;;;;;;;5024176;28;20000;-77
2021/08/01 13:06:28;;;;;;;2.22;0.90;;;;;;;;;;5023847;28;20045;-77
2021/08/01 13:08:55;;;;;;;1.35;0.73;;;;;;;;;;5022247;28;20551;-76
2021/08/01 13:11:21;;;;;;;1.88;0.80;;;;;;;;;;5022368;28;20064;-76
2021/08/01 13:13:52;;;;;;;2.42;1.00;;;;;;;;;;5021629;28;20176;-76
2021/08/01 13:16:18;;;;;;;2.75;1.00;;;;;;;;;;5023571;28;20147;-74
2021/08/01 13:18:48;;;;;;;3.08;1.10;;;;;;;;;;5018970;28;20120;-76
2021/08/01 13:21:14;;;;;;;1.80;0.73;;;;;;;;;;5019977;28;20088;-79
2021/08/01 13:23:42;;;;;;;2.05;1.00;;;;;;;;;;5024175;28;20058;-75
2021/08/01 13:26:34;;;;;;;2.47;0.90;;;;;;;;;;5031715;28;20049;-76
2021/08/01 13:29:08;;;;;;;1.60;1.00;;;;;;;;;;5018490;28;20104;-77
2021/08/01 13:31:34;;;;;;;4.40;0.90;;;;;;;;;;5023262;28;20500;-77
2021/08/01 13:34:03;;;;;;;1.95;0.80;;;;;;;;;;5010987;28;20065;-76
2021/08/01 13:36:44;;;;;;;1.65;0.70;;;;;;;;;;5021632;28;20388;-76
2021/08/01 13:39:12;;;;;;;0.98;0.70;;;;;;;;;;5022384;28;20062;-76
2021/08/01 13:41:38;;;;;;;3.15;1.00;;;;;;;;;;5024051;28;20505;-76
2021/08/01 13:44:16;;;;;;;1.30;0.80;;;;;;;;;;5025637;28;20064;-77
2021/08/01 13:46:43;;;;;;;1.25;0.73;;;;;;;;;;5024355;28;20065;-76
2021/08/01 13:49:10;;;;;;;2.03;0.68;;;;;;;;;;5022939;28;20080;-76
2021/08/01 13:51:36;;;;;;;2.33;0.80;;;;;;;;;;5019074;28;20564;-76
2021/08/01 13:54:03;;;;;;;0.95;0.70;;;;;;;;;;5020236;28;20732;-76
2021/08/01 13:56:30;;;;;;;1.45;0.70;;;;;;;;;;5022724;28;20072;-75
2021/08/01 13:58:57;;;;;;;1.80;0.85;;;;;;;;;;5018741;28;20447;-75
2021/08/01 14:01:24;;;;;;;6.25;1.10;;;;;;;;;;5021642;28;21562;-77
2021/08/01 14:03:51;;;;;;;3.03;0.93;;;;;;;;;;5053666;28;20217;-77
2021/08/01 14:06:17;;;;;;;2.13;0.88;;;;;;;;;;5054863;28;20064;-77
2021/08/01 14:08:44;;;;;;;3.28;0.80;;;;;;;;;;5023160;28;20060;-77
2021/08/01 14:11:10;;;;;;;2.80;0.93;;;;;;;;;;5017393;28;20034;-76
2021/08/01 14:13:37;;;;;;;3.30;0.90;;;;;;;;;;5022093;28;20061;-76
2021/08/01 14:16:03;;;;;;;2.38;0.90;;;;;;;;;;5054077;28;20037;-76
2021/08/01 14:18:30;;;;;;;1.85;0.70;;;;;;;;;;5021945;28;20544;-77
2021/08/01 14:20:56;;;;;;;3.08;1.10;;;;;;;;;;5016409;28;20123;-78
2021/08/01 14:23:23;;;;;;;12.90;5.93;;;;;;;;;;5028251;28;20505;-76
2021/08/01 14:25:54;;;;;;;24.38;16.83;;;;;;;;;;5027682;28;20788;-80
2021/08/01 14:28:21;;;;;;;25.35;19.63;;;;;;;;;;5029436;28;20100;-79
2021/08/01 14:30:48;;;;;;;26.23;22.67;;;;;;;;;;5026314;28;20394;-78
2021/08/01 14:33:15;;;;;;;17.52;13.30;;;;;;;;;;5026439;28;20060;-79
2021/08/01 14:35:42;;;;;;;23.55;20.25;;;;;;;;;;5028056;28;20083;-76
2021/08/01 14:38:09;;;;;;;22.30;18.25;;;;;;;;;;5024042;28;20098;-76
2021/08/01 14:40:39;;;;;;;23.13;16.45;;;;;;;;;;5049427;28;20446;-78
2021/08/01 14:43:05;;;;;;;30.77;24.73;;;;;;;;;;5019467;28;20064;-84
2021/08/01 14:45:33;;;;;;;35.05;26.63;;;;;;;;;;5048828;28;20069;-77
2021/08/01 14:48:01;;;;;;;35.97;28.02;;;;;;;;;;5019485;28;20065;-76
2021/08/01 14:50:38;;;;;;;37.50;30.00;;;;;;;;;;5021926;28;20069;-76